createdAt,value
2023-05-11T00:00:57.980Z,28.00
2023-05-11T00:01:57.943Z,28.40
2023-05-11T00:02:59.028Z,22.80
2023-05-11T00:03:57.966Z,26.30
2023-05-11T00:04:57.901Z,21.70
2023-05-11T00:05:57.860Z,20.10
2023-05-11T00:06:57.858Z,20.30
2023-05-11T00:07:57.862Z,19.00
2023-05-11T00:08:57.836Z,16.60
2023-05-11T00:09:57.820Z,17.50
2023-05-11T00:10:57.913Z,18.30
2023-05-11T00:11:57.770Z,15.90
2023-05-11T00:12:57.770Z,18.40
2023-05-11T00:13:57.802Z,19.40
2023-05-11T00:14:57.775Z,17.60
2023-05-11T00:15:57.805Z,21.90
2023-05-11T00:16:57.753Z,19.60
2023-05-11T00:17:57.732Z,24.80
2023-05-11T00:18:57.769Z,20.50
2023-05-11T00:19:57.668Z,24.20
2023-05-11T00:20:57.668Z,21.10
2023-05-11T00:21:57.632Z,20.60
2023-05-11T00:22:57.696Z,25.00
2023-05-11T00:23:57.618Z,19.20
2023-05-11T00:24:57.888Z,25.90
2023-05-11T00:25:57.961Z,23.00
2023-05-11T00:26:57.624Z,24.40
2023-05-11T00:27:57.585Z,26.00
2023-05-11T00:28:57.612Z,23.40
2023-05-11T00:29:58.299Z,24.10
2023-05-11T00:30:57.738Z,23.60
2023-05-11T00:31:57.604Z,24.80
2023-05-11T00:32:57.529Z,23.90
2023-05-11T00:33:57.469Z,22.70
2023-05-11T00:34:57.455Z,23.10
2023-05-11T00:35:57.529Z,29.30
2023-05-11T00:36:57.437Z,26.00
2023-05-11T00:37:57.444Z,21.50
2023-05-11T00:38:57.416Z,25.50
2023-05-11T00:39:57.526Z,21.70
2023-05-11T00:40:57.345Z,21.60
2023-05-11T00:41:57.376Z,21.00
2023-05-11T00:42:57.408Z,20.80
2023-05-11T00:43:57.416Z,19.80
2023-05-11T00:44:58.138Z,18.90
2023-05-11T00:45:57.301Z,17.80
2023-05-11T00:46:57.321Z,23.00
2023-05-11T00:47:57.324Z,20.30
2023-05-11T00:48:57.270Z,23.70
2023-05-11T00:50:00.331Z,30.70
2023-05-11T00:50:57.323Z,22.30
2023-05-11T00:51:57.224Z,22.90
2023-05-11T00:52:57.168Z,21.90
2023-05-11T00:53:57.210Z,23.60
2023-05-11T00:54:57.307Z,22.60
2023-05-11T00:55:57.216Z,26.10
2023-05-11T00:56:57.141Z,25.90
2023-05-11T00:57:57.181Z,26.10
2023-05-11T00:58:57.115Z,24.90
2023-05-11T00:59:57.136Z,26.20
2023-05-11T01:00:57.227Z,27.40
2023-05-11T01:01:57.089Z,24.70
2023-05-11T01:02:57.096Z,25.50
2023-05-11T01:03:57.028Z,26.80
2023-05-11T01:04:57.023Z,30.00
2023-05-11T01:05:57.089Z,19.20
2023-05-11T01:06:57.006Z,21.20
2023-05-11T01:07:56.990Z,18.90
2023-05-11T01:08:56.960Z,22.80
2023-05-11T01:09:56.968Z,23.60
2023-05-11T01:10:56.953Z,23.40
2023-05-11T01:11:56.984Z,21.00
2023-05-11T01:12:56.927Z,21.00
2023-05-11T01:13:56.942Z,21.10
2023-05-11T01:14:56.986Z,20.20
2023-05-11T01:15:56.852Z,20.30
2023-05-11T01:16:56.878Z,20.30
2023-05-11T01:17:56.976Z,20.40
2023-05-11T01:18:56.875Z,19.70
2023-05-11T01:19:56.869Z,22.20
2023-05-11T01:20:56.814Z,25.30
2023-05-11T01:21:56.791Z,25.20
2023-05-11T01:22:56.772Z,21.70
2023-05-11T01:23:56.756Z,23.50
2023-05-11T01:24:56.809Z,24.10
2023-05-11T01:25:56.748Z,24.40
2023-05-11T01:26:56.716Z,24.00
2023-05-11T01:27:56.732Z,28.50
2023-05-11T01:28:56.792Z,23.30
2023-05-11T01:29:56.676Z,23.70
2023-05-11T01:30:56.640Z,22.00
2023-05-11T01:31:56.700Z,21.20
2023-05-11T01:32:56.679Z,16.30
2023-05-11T01:33:56.657Z,19.80
2023-05-11T01:34:56.706Z,17.50
2023-05-11T01:35:56.675Z,15.50
2023-05-11T01:36:56.607Z,18.20
2023-05-11T01:37:56.548Z,17.00
2023-05-11T01:38:56.627Z,15.50
2023-05-11T01:39:56.582Z,17.30
2023-05-11T01:40:56.545Z,19.30
2023-05-11T01:41:56.507Z,19.40
2023-05-11T01:42:56.620Z,15.90
2023-05-11T01:43:57.329Z,18.80
2023-05-11T01:44:56.429Z,18.00
2023-05-11T01:45:56.499Z,17.70
2023-05-11T01:46:56.454Z,17.00
2023-05-11T01:47:56.530Z,20.50
2023-05-11T01:48:56.432Z,24.40
2023-05-11T01:49:56.462Z,23.50
2023-05-11T01:50:56.399Z,20.10
2023-05-11T01:51:56.349Z,18.60
2023-05-11T01:52:56.412Z,21.70
2023-05-11T01:53:56.353Z,17.90
2023-05-11T01:54:56.337Z,20.40
2023-05-11T01:55:57.802Z,24.20
2023-05-11T01:56:56.346Z,24.80
2023-05-11T01:57:56.329Z,22.20
2023-05-11T01:58:56.276Z,25.50
2023-05-11T01:59:56.324Z,19.80
2023-05-11T02:00:56.252Z,25.20
2023-05-11T02:01:56.295Z,24.90
2023-05-11T02:03:00.007Z,26.30
2023-05-11T02:03:56.310Z,28.70
2023-05-11T02:04:56.167Z,24.20
2023-05-11T02:05:56.243Z,30.10
2023-05-11T02:06:56.210Z,25.90
2023-05-11T02:07:56.242Z,25.70
2023-05-11T02:08:56.143Z,24.00
2023-05-11T02:09:56.111Z,25.40
2023-05-11T02:10:56.148Z,25.10
2023-05-11T02:11:56.133Z,23.70
2023-05-11T02:12:56.857Z,23.10
2023-05-11T02:13:56.052Z,24.20
2023-05-11T02:14:56.055Z,24.20
2023-05-11T02:15:56.856Z,19.20
2023-05-11T02:16:56.056Z,17.10
2023-05-11T02:17:56.099Z,19.80
2023-05-11T02:18:56.824Z,17.70
2023-05-11T02:20:01.830Z,17.40
2023-05-11T02:20:55.967Z,18.40
2023-05-11T02:21:55.990Z,18.70
2023-05-11T02:22:55.934Z,18.80
2023-05-11T02:23:55.996Z,20.40
2023-05-11T02:24:55.965Z,18.60
2023-05-11T02:25:56.766Z,21.40
2023-05-11T02:26:56.800Z,19.80
2023-05-11T02:28:08.059Z,21.50
2023-05-11T02:28:55.986Z,25.80
2023-05-11T02:29:55.833Z,23.10
2023-05-11T02:30:55.886Z,22.80
2023-05-11T02:31:56.042Z,22.50
2023-05-11T02:32:55.933Z,23.70
2023-05-11T02:33:55.806Z,21.30
2023-05-11T02:34:55.757Z,24.30
2023-05-11T02:35:57.452Z,19.90
2023-05-11T02:36:55.807Z,22.40
2023-05-11T02:37:55.893Z,23.70
2023-05-11T02:38:55.738Z,19.40
2023-05-11T02:39:55.697Z,21.50
2023-05-11T02:41:02.972Z,22.30
2023-05-11T02:41:55.657Z,20.80
2023-05-11T02:42:55.716Z,19.40
2023-05-11T02:43:55.674Z,22.30
2023-05-11T02:44:55.646Z,24.20
2023-05-11T02:45:55.583Z,18.50
2023-05-11T02:46:55.636Z,22.10
2023-05-11T02:47:55.961Z,24.20
2023-05-11T02:48:56.468Z,20.20
2023-05-11T02:49:55.566Z,19.30
2023-05-11T02:50:55.561Z,17.40
2023-05-11T02:51:55.521Z,19.20
2023-05-11T02:52:55.742Z,20.70
2023-05-11T02:53:56.281Z,20.50
2023-05-11T02:54:55.536Z,19.70
2023-05-11T02:55:56.359Z,20.20
2023-05-11T02:56:56.541Z,20.70
2023-05-11T02:57:55.573Z,17.40
2023-05-11T02:58:56.568Z,22.40
2023-05-11T02:59:55.396Z,18.50
2023-05-11T03:00:56.501Z,18.30
2023-05-11T03:01:55.534Z,17.20
2023-05-11T03:02:55.399Z,14.80
2023-05-11T03:03:55.381Z,14.70
2023-05-11T03:04:55.328Z,14.10
2023-05-11T03:05:57.108Z,14.70
2023-05-11T03:06:55.390Z,12.30
2023-05-11T03:07:55.279Z,12.90
2023-05-11T03:08:55.293Z,16.60
2023-05-11T03:09:55.318Z,15.70
2023-05-11T03:10:55.243Z,14.40
2023-05-11T03:11:56.004Z,12.70
2023-05-11T03:12:55.335Z,13.80
2023-05-11T03:13:55.201Z,12.00
2023-05-11T03:14:55.199Z,15.20
2023-05-11T03:15:55.240Z,14.40
2023-05-11T03:16:55.185Z,13.40
2023-05-11T03:17:55.177Z,13.70
2023-05-11T03:18:57.025Z,12.00
2023-05-11T03:19:55.163Z,14.40
2023-05-11T03:20:55.141Z,11.90
2023-05-11T03:21:55.214Z,13.60
2023-05-11T03:22:55.130Z,10.70
2023-05-11T03:23:55.103Z,11.10
2023-05-11T03:24:55.094Z,10.10
2023-05-11T03:25:55.409Z,11.20
2023-05-11T03:26:55.085Z,13.50
2023-05-11T03:27:55.077Z,12.10
2023-05-11T03:28:55.112Z,13.60
2023-05-11T03:29:55.127Z,16.10
2023-05-11T03:30:55.111Z,13.70
2023-05-11T03:31:55.105Z,16.10
2023-05-11T03:32:55.054Z,14.70
2023-05-11T03:33:55.024Z,15.90
2023-05-11T03:34:54.961Z,13.20
2023-05-11T03:35:54.912Z,13.10
2023-05-11T03:36:55.104Z,13.50
2023-05-11T03:37:56.061Z,13.00
2023-05-11T03:38:55.769Z,11.60
2023-05-11T03:39:56.632Z,12.30
2023-05-11T03:40:55.216Z,14.30
2023-05-11T03:41:54.890Z,13.60
2023-05-11T03:42:54.814Z,13.80
2023-05-11T03:43:54.858Z,13.70
2023-05-11T03:44:54.851Z,12.40
2023-05-11T03:45:54.818Z,13.10
2023-05-11T03:46:54.788Z,11.90
2023-05-11T03:47:58.712Z,12.30
2023-05-11T03:48:54.820Z,14.50
2023-05-11T03:49:54.839Z,13.70
2023-05-11T03:50:54.698Z,10.90
2023-05-11T03:51:54.682Z,12.60
2023-05-11T03:52:58.454Z,12.30
2023-05-11T03:53:54.665Z,13.00
2023-05-11T03:54:54.712Z,13.70
2023-05-11T03:55:54.642Z,12.90
2023-05-11T03:56:54.814Z,13.90
2023-05-11T03:57:54.604Z,13.40
2023-05-11T03:58:54.777Z,13.20
2023-05-11T03:59:54.854Z,12.80
2023-05-11T04:00:54.603Z,12.50
2023-05-11T04:01:54.567Z,13.10
2023-05-11T04:02:54.708Z,13.40
2023-05-11T04:03:54.634Z,15.40
2023-05-11T04:04:59.635Z,14.00
2023-05-11T04:05:54.518Z,13.50
2023-05-11T04:06:54.612Z,13.70
2023-05-11T04:07:54.498Z,12.30
2023-05-11T04:08:54.480Z,13.60
2023-05-11T04:09:54.627Z,13.40
2023-05-11T04:10:54.554Z,14.20
2023-05-11T04:11:54.406Z,13.70
2023-05-11T04:12:54.445Z,14.90
2023-05-11T04:13:54.369Z,13.70
2023-05-11T04:14:54.358Z,12.50
2023-05-11T04:15:54.567Z,14.20
2023-05-11T04:16:54.417Z,15.00
2023-05-11T04:17:54.388Z,15.80
2023-05-11T04:18:54.355Z,15.50
2023-05-11T04:19:54.718Z,15.70
2023-05-11T04:20:54.278Z,14.70
2023-05-11T04:21:56.695Z,14.20
2023-05-11T04:22:54.260Z,14.60
2023-05-11T04:23:54.248Z,14.30
2023-05-11T04:24:54.257Z,15.40
2023-05-11T04:25:54.252Z,15.80
2023-05-11T04:26:54.289Z,16.90
2023-05-11T04:27:54.230Z,13.40
2023-05-11T04:28:54.175Z,14.40
2023-05-11T04:29:54.221Z,14.70
2023-05-11T04:30:54.119Z,14.30
2023-05-11T04:31:54.263Z,16.60
2023-05-11T04:32:54.307Z,14.90
2023-05-11T04:33:54.148Z,14.60
2023-05-11T04:34:54.105Z,14.70
2023-05-11T04:35:54.062Z,13.70
2023-05-11T04:36:54.084Z,14.20
2023-05-11T04:37:54.016Z,15.50
2023-05-11T04:38:54.256Z,14.50
2023-05-11T04:39:54.173Z,13.20
2023-05-11T04:40:54.033Z,13.40
2023-05-11T04:41:54.089Z,13.20
2023-05-11T04:42:53.991Z,14.60
2023-05-11T04:43:53.916Z,12.30
2023-05-11T04:44:53.926Z,13.20
2023-05-11T04:45:54.031Z,14.10
2023-05-11T04:46:53.970Z,14.30
2023-05-11T04:47:53.951Z,14.20
2023-05-11T04:48:53.928Z,12.90
2023-05-11T04:49:53.883Z,14.90
2023-05-11T04:50:53.834Z,14.10
2023-05-11T04:51:53.974Z,14.90
2023-05-11T04:52:53.809Z,15.60
2023-05-11T04:53:54.521Z,14.60
2023-05-11T04:54:53.819Z,14.00
2023-05-11T04:55:53.794Z,14.30
2023-05-11T04:56:53.826Z,14.10
2023-05-11T04:57:53.804Z,13.90
2023-05-11T04:58:53.733Z,14.90
2023-05-11T04:59:53.771Z,15.00
2023-05-11T05:00:53.746Z,16.30
2023-05-11T05:01:54.451Z,18.00
2023-05-11T05:02:54.172Z,14.70
2023-05-11T05:03:53.799Z,14.10
2023-05-11T05:04:53.674Z,15.90
2023-05-11T05:05:53.643Z,16.00
2023-05-11T05:06:53.621Z,14.90
2023-05-11T05:07:53.642Z,14.00
2023-05-11T05:08:53.567Z,13.60
2023-05-11T05:09:53.714Z,14.60
2023-05-11T05:10:53.616Z,14.20
2023-05-11T05:11:53.620Z,15.10
2023-05-11T05:12:53.573Z,14.00
2023-05-11T05:13:53.589Z,16.20
2023-05-11T05:14:53.526Z,14.90
2023-05-11T05:15:53.535Z,14.60
2023-05-11T05:16:53.537Z,13.40
2023-05-11T05:17:53.548Z,14.20
2023-05-11T05:18:53.550Z,13.30
2023-05-11T05:19:53.443Z,12.90
2023-05-11T05:20:53.437Z,11.10
2023-05-11T05:21:53.382Z,11.40
2023-05-11T05:22:53.368Z,10.80
2023-05-11T05:23:53.492Z,10.90
2023-05-11T05:24:53.673Z,12.40
2023-05-11T05:25:53.787Z,11.80
2023-05-11T05:26:53.355Z,11.60
2023-05-11T05:27:53.372Z,14.10
2023-05-11T05:28:53.323Z,13.30
2023-05-11T05:29:53.710Z,11.60
2023-05-11T05:30:53.310Z,11.30
2023-05-11T05:31:53.290Z,10.90
2023-05-11T05:32:53.294Z,11.80
2023-05-11T05:33:53.316Z,12.60
2023-05-11T05:34:53.324Z,12.20
2023-05-11T05:35:53.569Z,11.50
2023-05-11T05:36:53.168Z,12.00
2023-05-11T05:37:54.151Z,11.30
2023-05-11T05:38:53.372Z,9.70
2023-05-11T05:39:53.349Z,11.30
2023-05-11T05:40:53.156Z,10.50
2023-05-11T05:41:53.479Z,8.60
2023-05-11T05:42:53.078Z,8.40
2023-05-11T05:43:53.156Z,10.00
2023-05-11T05:44:53.072Z,8.00
2023-05-11T05:45:53.084Z,7.40
2023-05-11T05:46:53.101Z,9.00
2023-05-11T05:47:53.217Z,8.60
2023-05-11T05:48:53.039Z,9.20
2023-05-11T05:49:54.061Z,9.40
2023-05-11T05:50:53.001Z,10.50
2023-05-11T05:51:53.000Z,11.30
2023-05-11T05:52:52.974Z,11.40
2023-05-11T05:53:53.053Z,13.20
2023-05-11T05:54:52.969Z,9.90
2023-05-11T05:55:53.864Z,9.30
2023-05-11T05:56:52.947Z,10.60
2023-05-11T05:57:52.935Z,12.20
2023-05-11T05:58:52.941Z,10.50
2023-05-11T05:59:52.861Z,9.60
2023-05-11T06:00:52.865Z,13.50
2023-05-11T06:01:52.886Z,10.80
2023-05-11T06:02:52.927Z,10.40
2023-05-11T06:03:53.827Z,12.30
2023-05-11T06:04:52.813Z,12.80
2023-05-11T06:05:52.801Z,10.00
2023-05-11T06:06:53.590Z,10.70
2023-05-11T06:08:06.015Z,11.80
2023-05-11T06:08:54.672Z,11.80
2023-05-11T06:09:52.782Z,13.00
2023-05-11T06:10:52.712Z,11.40
2023-05-11T06:11:52.881Z,11.80
2023-05-11T06:12:53.529Z,13.10
2023-05-11T06:13:52.678Z,11.90
2023-05-11T06:14:52.680Z,12.40
2023-05-11T06:15:52.798Z,11.20
2023-05-11T06:16:52.872Z,11.90
2023-05-11T06:17:52.707Z,13.50
2023-05-11T06:18:52.772Z,12.70
2023-05-11T06:19:53.368Z,14.00
2023-05-11T06:20:53.593Z,13.10
2023-05-11T06:21:53.301Z,12.60
2023-05-11T06:22:52.547Z,12.70
2023-05-11T06:23:52.562Z,14.20
2023-05-11T06:24:53.437Z,13.10
2023-05-11T06:25:52.543Z,13.40
2023-05-11T06:26:52.510Z,12.00
2023-05-11T06:27:54.212Z,13.80
2023-05-11T06:28:53.315Z,14.80
2023-05-11T06:29:53.475Z,15.90
2023-05-11T06:30:52.518Z,13.50
2023-05-11T06:31:52.566Z,16.70
2023-05-11T06:32:52.581Z,15.00
2023-05-11T06:33:52.868Z,16.00
2023-05-11T06:34:52.372Z,17.80
2023-05-11T06:35:52.398Z,15.80
2023-05-11T06:36:52.467Z,17.40
2023-05-11T06:37:52.356Z,20.60
2023-05-11T06:38:52.445Z,17.20
2023-05-11T06:39:52.351Z,16.30
2023-05-11T06:40:52.337Z,16.40
2023-05-11T06:41:53.586Z,17.50
2023-05-11T06:42:52.359Z,18.00
2023-05-11T06:43:52.268Z,18.10
2023-05-11T06:44:52.330Z,18.20
2023-05-11T06:45:52.494Z,18.10
2023-05-11T06:46:52.253Z,17.70
2023-05-11T06:47:52.255Z,17.00
2023-05-11T06:48:52.227Z,19.10
2023-05-11T06:49:52.191Z,17.80
2023-05-11T06:50:52.188Z,19.60
2023-05-11T06:51:52.207Z,17.70
2023-05-11T06:52:52.128Z,16.40
2023-05-11T06:53:52.199Z,17.60
2023-05-11T06:54:52.112Z,21.20
2023-05-11T06:55:52.107Z,17.20
2023-05-11T06:56:52.155Z,17.80
2023-05-11T06:57:52.151Z,21.40
2023-05-11T06:58:52.067Z,24.10
2023-05-11T06:59:52.066Z,20.20
2023-05-11T07:00:52.068Z,17.60
2023-05-11T07:01:52.051Z,17.60
2023-05-11T07:02:52.096Z,24.20
2023-05-11T07:03:54.735Z,22.50
2023-05-11T07:04:52.176Z,19.40
2023-05-11T07:05:51.992Z,24.10
2023-05-11T07:06:51.948Z,25.60
2023-05-11T07:07:52.006Z,26.90
2023-05-11T07:08:51.930Z,21.00
2023-05-11T07:09:51.934Z,23.00
2023-05-11T07:10:51.919Z,21.80
2023-05-11T07:11:51.967Z,22.80
2023-05-11T07:12:52.139Z,24.80
2023-05-11T07:13:51.934Z,18.70
2023-05-11T07:14:51.812Z,24.20
2023-05-11T07:15:51.881Z,21.40
2023-05-11T07:16:51.801Z,25.40
2023-05-11T07:17:51.883Z,18.60
2023-05-11T07:18:51.870Z,23.00
2023-05-11T07:19:51.823Z,23.10
2023-05-11T07:20:51.786Z,26.90
2023-05-11T07:21:51.759Z,29.60
2023-05-11T07:22:51.700Z,28.20
2023-05-11T07:23:51.700Z,32.00
2023-05-11T07:24:52.183Z,30.00
2023-05-11T07:25:51.698Z,22.40
2023-05-11T07:26:51.670Z,22.40
2023-05-11T07:27:51.594Z,25.80
2023-05-11T07:28:51.609Z,24.00
2023-05-11T07:29:51.610Z,32.50
2023-05-11T07:30:51.623Z,24.80
2023-05-11T07:31:51.605Z,29.40
2023-05-11T07:32:51.600Z,33.70
2023-05-11T07:33:51.537Z,31.90
2023-05-11T07:34:51.502Z,32.00
2023-05-11T07:35:51.498Z,29.30
2023-05-11T07:36:51.502Z,35.00
2023-05-11T07:37:51.515Z,35.60
2023-05-11T07:38:51.468Z,30.10
2023-05-11T07:39:51.471Z,26.30
2023-05-11T07:40:51.455Z,27.40
2023-05-11T07:41:51.512Z,30.20
2023-05-11T07:42:51.419Z,31.20
2023-05-11T07:43:52.231Z,37.20
2023-05-11T07:44:51.439Z,26.80
2023-05-11T07:45:51.663Z,37.20
2023-05-11T07:46:54.434Z,42.80
2023-05-11T07:47:51.381Z,36.70
2023-05-11T07:48:57.385Z,29.50
2023-05-11T07:49:52.345Z,26.20
2023-05-11T07:50:51.404Z,39.80
2023-05-11T07:51:51.291Z,34.40
2023-05-11T07:52:51.311Z,38.10
2023-05-11T07:53:51.238Z,34.70
2023-05-11T07:54:51.313Z,32.30
2023-05-11T07:55:51.222Z,36.10
2023-05-11T07:56:51.189Z,30.10
2023-05-11T07:57:51.179Z,31.10
2023-05-11T07:58:51.218Z,53.50
2023-05-11T07:59:51.234Z,47.10
2023-05-11T08:00:51.129Z,36.20
2023-05-11T08:01:51.166Z,33.60
2023-05-11T08:02:51.984Z,27.50
2023-05-11T08:03:51.085Z,46.80
2023-05-11T08:04:51.137Z,31.20
2023-05-11T08:05:51.107Z,43.50
2023-05-11T08:06:51.044Z,36.30
2023-05-11T08:07:51.068Z,35.40
2023-05-11T08:08:51.032Z,42.30
2023-05-11T08:09:51.049Z,42.20
2023-05-11T08:10:51.105Z,43.40
2023-05-11T08:11:50.973Z,45.20
2023-05-11T08:12:50.962Z,36.20
2023-05-11T08:13:50.959Z,39.50
2023-05-11T08:14:50.928Z,25.10
2023-05-11T08:15:51.030Z,30.60
2023-05-11T08:16:50.915Z,27.30
2023-05-11T08:17:50.976Z,33.00
2023-05-11T08:18:50.956Z,32.50
2023-05-11T08:19:50.869Z,29.10
2023-05-11T08:20:50.896Z,34.80
2023-05-11T08:21:50.856Z,33.20
2023-05-11T08:22:50.877Z,32.80
2023-05-11T08:23:50.828Z,36.90
2023-05-11T08:24:50.866Z,43.20
2023-05-11T08:25:50.801Z,35.10
2023-05-11T08:26:50.749Z,35.30
2023-05-11T08:27:50.738Z,36.80
2023-05-11T08:28:50.894Z,40.20
2023-05-11T08:29:50.752Z,43.90
2023-05-11T08:30:50.711Z,38.90
2023-05-11T08:31:50.839Z,22.80
2023-05-11T08:32:58.712Z,28.90
2023-05-11T08:33:51.753Z,39.10
2023-05-11T08:34:50.757Z,36.50
2023-05-11T08:35:50.682Z,35.10
2023-05-11T08:36:50.635Z,23.10
2023-05-11T08:37:50.640Z,30.10
2023-05-11T08:38:50.632Z,36.80
2023-05-11T08:39:50.633Z,42.20
2023-05-11T08:40:50.571Z,28.60
2023-05-11T08:41:50.575Z,38.70
2023-05-11T08:42:50.528Z,35.60
2023-05-11T08:43:50.538Z,31.80
2023-05-11T08:44:50.553Z,36.90
2023-05-11T08:45:50.559Z,33.70
2023-05-11T08:47:01.364Z,33.30
2023-05-11T08:47:51.493Z,42.40
2023-05-11T08:48:50.534Z,33.90
2023-05-11T08:49:50.444Z,35.60
2023-05-11T08:50:50.425Z,33.40
2023-05-11T08:51:50.446Z,46.20
2023-05-11T08:52:50.458Z,41.00
2023-05-11T08:53:50.363Z,33.80
2023-05-11T08:54:50.425Z,40.00
2023-05-11T08:55:51.215Z,42.50
2023-05-11T08:56:51.367Z,34.80
2023-05-11T08:57:51.296Z,38.50
2023-05-11T08:58:50.371Z,40.50
2023-05-11T08:59:50.294Z,42.80
2023-05-11T09:00:50.283Z,39.10
2023-05-11T09:01:51.304Z,46.70
2023-05-11T09:02:50.281Z,37.40
2023-05-11T09:03:51.210Z,48.60
2023-05-11T09:04:50.311Z,45.50
2023-05-11T09:05:50.368Z,42.70
2023-05-11T09:06:50.237Z,45.10
2023-05-11T09:07:51.084Z,48.10
2023-05-11T09:08:50.162Z,42.40
2023-05-11T09:09:50.150Z,44.20
2023-05-11T09:10:50.170Z,43.10
2023-05-11T09:11:50.152Z,38.50
2023-05-11T09:12:50.119Z,40.70
2023-05-11T09:13:51.001Z,44.20
2023-05-11T09:14:50.095Z,47.50
2023-05-11T09:15:51.107Z,41.80
2023-05-11T09:16:50.146Z,33.50
2023-05-11T09:17:50.181Z,46.50
2023-05-11T09:18:50.195Z,23.40
2023-05-11T09:19:50.038Z,33.40
2023-05-11T09:20:50.033Z,34.00
2023-05-11T09:21:50.029Z,32.70
2023-05-11T09:22:49.990Z,28.60
2023-05-11T09:23:50.811Z,33.80
2023-05-11T09:24:49.958Z,29.30
2023-05-11T09:25:50.027Z,22.20
2023-05-11T09:26:49.926Z,23.10
2023-05-11T09:27:49.894Z,23.70
2023-05-11T09:29:02.441Z,32.40
2023-05-11T09:29:52.245Z,26.70
2023-05-11T09:30:49.893Z,28.30
2023-05-11T09:31:50.881Z,37.50
2023-05-11T09:32:49.848Z,44.50
2023-05-11T09:33:49.894Z,30.10
2023-05-11T09:34:49.857Z,27.80
2023-05-11T09:35:49.821Z,23.20
2023-05-11T09:36:50.165Z,33.00
2023-05-11T09:37:50.111Z,30.30
2023-05-11T09:38:50.167Z,19.10
2023-05-11T09:40:50.360Z,25.00
2023-05-11T09:41:51.899Z,30.50
2023-05-11T09:42:49.720Z,27.20
2023-05-11T09:43:50.436Z,21.50
2023-05-11T09:44:50.505Z,30.80
2023-05-11T09:45:49.741Z,25.20
2023-05-11T09:46:50.668Z,25.20
2023-05-11T09:47:50.657Z,24.10
2023-05-11T09:48:50.500Z,25.30
2023-05-11T09:49:49.594Z,21.10
2023-05-11T09:50:49.718Z,23.60
2023-05-11T09:51:49.595Z,25.70
2023-05-11T09:52:50.383Z,19.60
2023-05-11T09:53:50.543Z,23.80
2023-05-11T09:54:50.456Z,23.60
2023-05-11T09:55:50.344Z,29.30
2023-05-11T09:56:50.536Z,25.40
2023-05-11T09:57:50.417Z,23.70
2023-05-11T09:58:50.322Z,20.50
2023-05-11T09:59:50.478Z,20.90
2023-05-11T10:00:50.379Z,17.40
2023-05-11T10:01:49.455Z,22.50
2023-05-11T10:02:49.462Z,19.50
2023-05-11T10:03:49.579Z,22.00
2023-05-11T10:04:49.417Z,19.10
2023-05-11T10:05:49.377Z,23.10
2023-05-11T10:06:49.401Z,17.40
2023-05-11T10:07:49.397Z,20.20
2023-05-11T10:08:49.342Z,22.30
2023-05-11T10:09:49.350Z,19.70
2023-05-11T10:10:49.325Z,17.40
2023-05-11T10:11:49.371Z,19.70
2023-05-11T10:12:49.273Z,16.30
2023-05-11T10:13:49.298Z,17.50
2023-05-11T10:14:49.262Z,17.80
2023-05-11T10:15:49.366Z,14.90
2023-05-11T10:16:49.231Z,16.80
2023-05-11T10:17:50.098Z,14.80
2023-05-11T10:18:49.231Z,17.90
2023-05-11T10:19:49.206Z,13.80
2023-05-11T10:20:49.194Z,22.10
2023-05-11T10:21:49.202Z,15.80
2023-05-11T10:22:49.431Z,18.30
